Time;durP1;ratioP1;P1;durP2;ratioP2;P2;SDS_P1;SDS_P2;PMS_P1;PMS_P2;Temp;Humidity;BMP_temperature;BMP_pressure;BME280_temperature;BME280_humidity;BME280_pressure;Samples;Min_cycle;Max_cycle;Signal;HPM_P1;HPM_P2
2021/04/12 00:01:00;;;;;;;5.05;0.70;;;;;;;1.77;86.26;101882.50;5026678;28;20061;-78
2021/04/12 00:03:34;;;;;;;3.08;0.70;;;;;;;1.58;86.69;101889.31;4993529;28;20038;-79
2021/04/12 00:06:18;;;;;;;4.95;0.70;;;;;;;1.59;87.09;101901.34;5007865;28;20553;-78
2021/04/12 00:08:57;;;;;;;4.45;1.00;;;;;;;1.56;87.13;101902.28;5035186;28;20034;-78
2021/04/12 00:11:44;;;;;;;4.13;1.00;;;;;;;1.46;86.94;101896.66;5027134;28;20129;-80
2021/04/12 00:14:12;;;;;;;5.07;0.70;;;;;;;1.46;87.13;101901.81;5008628;28;20530;-75
2021/04/12 00:16:45;;;;;;;5.20;0.90;;;;;;;1.35;87.30;101902.22;5020020;28;20045;-79
2021/04/12 00:19:26;;;;;;;3.50;0.80;;;;;;;1.23;87.72;101909.63;5008273;28;20072;-79
2021/04/12 00:22:27;;;;;;;8.15;1.08;;;;;;;1.46;87.43;101906.16;5010850;28;20062;-80
2021/04/12 00:25:03;;;;;;;8.63;1.20;;;;;;;1.34;87.78;101917.81;5025030;28;20073;-81
2021/04/12 00:27:55;;;;;;;2.70;0.73;;;;;;;1.39;87.72;101918.47;5016978;28;20080;-80
2021/04/12 00:30:32;;;;;;;8.82;1.15;;;;;;;1.36;88.00;101906.50;5009680;28;20042;-78
2021/04/12 00:33:13;;;;;;;5.93;1.10;;;;;;;1.29;88.52;101910.22;5012225;28;20548;-78
2021/04/12 00:36:05;;;;;;;3.60;1.13;;;;;;;1.21;89.14;101919.19;4993416;28;20136;-78
2021/04/12 00:38:48;;;;;;;4.88;1.15;;;;;;;1.12;89.57;101917.75;5016370;28;20040;-78
2021/04/12 00:41:55;;;;;;;7.72;1.30;;;;;;;1.02;89.94;101921.56;4994481;28;21968;-78
2021/04/12 00:45:01;;;;;;;3.75;1.02;;;;;;;1.20;89.20;101928.66;4927329;28;20050;-78
2021/04/12 00:48:05;;;;;;;7.47;1.30;;;;;;;1.10;89.47;101919.56;5028309;28;20057;-77
2021/04/12 00:50:42;;;;;;;5.68;1.40;;;;;;;1.07;89.81;101922.25;5038502;28;20721;-78
2021/04/12 00:53:27;;;;;;;7.32;1.40;;;;;;;0.99;89.95;101919.94;5007556;28;20137;-79
2021/04/12 00:56:07;;;;;;;5.90;1.50;;;;;;;0.93;90.11;101925.34;5016489;28;20718;-77
2021/04/12 00:58:46;;;;;;;4.40;1.20;;;;;;;0.73;90.37;101907.97;5037442;28;20488;-77
2021/04/12 01:01:29;;;;;;;6.05;1.48;;;;;;;0.67;90.52;101893.53;5009536;28;20050;-79
2021/04/12 01:04:13;;;;;;;3.20;0.90;;;;;;;0.68;90.53;101922.78;4994586;28;20841;-78
2021/04/12 01:06:48;;;;;;;4.68;1.25;;;;;;;0.75;91.18;101929.41;5008977;28;20061;-77
2021/04/12 01:09:30;;;;;;;10.70;1.42;;;;;;;0.72;91.07;101937.28;4990987;28;20116;-77
2021/04/12 01:12:15;;;;;;;7.68;1.20;;;;;;;0.64;91.04;101939.28;4985352;28;20116;-78
2021/04/12 01:15:06;;;;;;;3.00;0.95;;;;;;;0.64;91.23;101929.81;4962416;28;20132;-78
2021/04/12 01:17:46;;;;;;;6.18;1.48;;;;;;;0.64;91.92;101934.97;4992553;28;20049;-76
2021/04/12 01:20:40;;;;;;;5.53;1.10;;;;;;;0.62;91.79;101938.50;4976812;28;20182;-77
2021/04/12 01:23:37;;;;;;;6.38;1.48;;;;;;;0.69;91.38;101950.28;5005529;28;20141;-78
2021/04/12 01:26:28;;;;;;;4.07;1.10;;;;;;;0.76;91.80;101951.78;4985577;28;20156;-77
2021/04/12 01:29:32;;;;;;;6.05;1.42;;;;;;;0.72;91.61;101953.63;4987915;28;20046;-77
2021/04/12 01:32:25;;;;;;;11.65;1.45;;;;;;;0.69;92.03;101968.38;4970025;28;20134;-77
2021/04/12 01:35:28;;;;;;;6.80;1.50;;;;;;;0.73;91.96;101965.63;5006588;28;20403;-78
2021/04/12 01:37:55;;;;;;;12.23;1.27;;;;;;;0.68;92.17;101974.41;4988530;28;20050;-79
2021/04/12 01:40:54;;;;;;;12.82;1.70;;;;;;;0.65;92.08;101980.53;4990165;28;20034;-77
2021/04/12 01:43:54;;;;;;;7.18;1.60;;;;;;;0.72;92.43;101981.19;5004953;28;20046;-79
2021/04/12 01:46:26;;;;;;;5.53;1.23;;;;;;;0.73;91.96;101988.88;4995280;28;20050;-79
2021/04/12 01:49:06;;;;;;;2.60;1.10;;;;;;;0.69;92.31;101989.03;4971498;28;20045;-78
2021/04/12 01:51:39;;;;;;;4.40;1.33;;;;;;;0.67;91.92;101999.41;4987196;28;20063;-79
2021/04/12 01:54:13;;;;;;;9.48;1.30;;;;;;;0.54;92.49;101995.56;4984023;28;20043;-78
2021/04/12 01:56:54;;;;;;;5.93;1.50;;;;;;;0.52;92.29;101998.19;4987119;28;20056;-79
2021/04/12 01:59:46;;;;;;;5.75;1.40;;;;;;;0.48;92.30;102009.50;4971744;28;20042;-79
2021/04/12 02:02:31;;;;;;;4.32;1.35;;;;;;;0.41;92.86;102009.75;4991635;28;20042;-81
2021/04/12 02:05:17;;;;;;;6.47;1.30;;;;;;;0.44;92.89;102020.84;4992627;28;20061;-79
2021/04/12 02:08:10;;;;;;;3.20;1.02;;;;;;;0.42;92.90;102019.22;5012754;28;20104;-78
2021/04/12 02:10:58;;;;;;;5.70;1.20;;;;;;;0.30;93.02;102023.00;4971855;28;20041;-79
2021/04/12 02:13:23;;;;;;;7.28;1.00;;;;;;;0.11;92.87;102023.56;5005278;28;20050;-79
2021/04/12 02:16:46;;;;;;;8.23;1.20;;;;;;;0.16;93.42;102018.28;5000338;28;20054;-79
2021/04/12 02:19:37;;;;;;;3.97;1.00;;;;;;;0.09;93.50;102025.38;5025847;28;20072;-77
2021/04/12 02:22:33;;;;;;;6.63;1.13;;;;;;;0.02;93.70;102031.63;5014590;28;20044;-77
2021/04/12 02:25:12;;;;;;;7.75;1.40;;;;;;;-0.04;94.07;102026.63;5021361;28;20419;-79
2021/04/12 02:28:13;;;;;;;6.63;1.58;;;;;;;-0.05;93.32;102018.06;5015641;28;20050;-79
2021/04/12 02:31:00;;;;;;;9.70;1.10;;;;;;;-0.10;93.67;102024.25;5015755;28;20046;-78
2021/04/12 02:33:41;;;;;;;5.50;1.08;;;;;;;-0.09;94.23;102031.13;5018645;28;20063;-80
2021/04/12 02:36:37;;;;;;;7.55;1.15;;;;;;;-0.07;93.97;102034.47;5025892;28;20063;-79
2021/04/12 02:39:32;;;;;;;6.50;1.20;;;;;;;0.02;94.01;102029.06;5043146;28;20187;-76
2021/04/12 02:42:40;;;;;;;6.40;1.15;;;;;;;-0.03;93.62;102031.75;4984092;28;20049;-79
2021/04/12 02:45:35;;;;;;;2.70;0.90;;;;;;;-0.01;93.72;102032.53;5013470;28;20049;-78
2021/04/12 02:48:30;;;;;;;5.63;1.30;;;;;;;-0.02;93.52;102030.00;5008574;28;20068;-78
2021/04/12 02:51:37;;;;;;;4.38;1.23;;;;;;;-0.12;93.36;102038.94;5038828;28;20061;-80
2021/04/12 02:54:39;;;;;;;6.65;1.58;;;;;;;-0.11;93.22;102038.06;4989239;28;20045;-79
2021/04/12 02:57:14;;;;;;;7.50;1.17;;;;;;;-0.35;92.98;102037.03;4996314;28;20038;-79
2021/04/12 02:59:48;;;;;;;7.47;1.10;;;;;;;-0.47;94.12;102039.06;4970448;28;20050;-79
2021/04/12 03:02:25;;;;;;;7.40;1.40;;;;;;;-0.41;94.48;102053.53;4998537;28;20042;-79
2021/04/12 03:05:00;;;;;;;7.60;1.10;;;;;;;-0.45;94.44;102052.75;5030317;28;20041;-79
2021/04/12 03:07:42;;;;;;;8.85;1.90;;;;;;;-0.42;94.67;102049.25;5008585;28;20038;-79
2021/04/12 03:10:28;;;;;;;5.60;1.13;;;;;;;-0.40;94.49;102056.06;5010915;28;20046;-79
2021/04/12 03:13:18;;;;;;;4.05;1.30;;;;;;;-0.46;94.53;102058.78;4987183;28;20073;-79
2021/04/12 03:15:50;;;;;;;8.02;1.20;;;;;;;-0.52;95.16;102060.72;5004475;28;20048;-78
2021/04/12 03:18:45;;;;;;;8.15;1.52;;;;;;;-0.50;94.87;102049.47;4991124;28;20052;-80
2021/04/12 03:21:32;;;;;;;8.88;1.30;;;;;;;-0.63;94.80;102061.84;4972356;28;20054;-78
2021/04/12 03:24:23;;;;;;;4.53;1.25;;;;;;;-0.50;94.97;102067.50;5022554;28;20206;-78
2021/04/12 03:27:04;;;;;;;10.90;1.40;;;;;;;-0.52;94.69;102073.59;5009694;28;20053;-78
2021/04/12 03:30:00;;;;;;;9.38;1.65;;;;;;;-0.66;94.92;102072.25;4999162;28;20034;-77
2021/04/12 03:32:52;;;;;;;5.28;1.23;;;;;;;-0.74;94.85;102074.16;5027456;28;20049;-78
2021/04/12 03:35:24;;;;;;;8.52;1.30;;;;;;;-0.77;95.50;102084.56;5018791;28;20045;-76
2021/04/12 03:38:03;;;;;;;6.32;1.33;;;;;;;-0.63;95.50;102084.19;5013590;28;20033;-78
2021/04/12 03:40:59;;;;;;;7.38;1.52;;;;;;;-0.60;95.51;102090.13;4973511;28;20126;-80
2021/04/12 03:44:06;;;;;;;5.40;1.27;;;;;;;-0.51;95.37;102089.03;5012848;28;20053;-78
2021/04/12 03:47:10;;;;;;;5.82;1.40;;;;;;;-0.61;95.34;102100.47;4977086;28;20042;-80
2021/04/12 03:50:10;;;;;;;4.97;1.38;;;;;;;-0.62;95.49;102093.63;4966279;28;20051;-79
2021/04/12 03:52:57;;;;;;;11.65;1.92;;;;;;;-0.54;94.97;102093.41;5015751;28;20181;-79
2021/04/12 03:55:38;;;;;;;7.18;1.83;;;;;;;-0.67;95.52;102092.91;4985548;28;20455;-78
2021/04/12 03:58:35;;;;;;;11.60;2.05;;;;;;;-0.78;95.40;102095.75;4997675;28;20049;-78
2021/04/12 04:01:30;;;;;;;12.75;2.20;;;;;;;-0.62;95.32;102101.38;4989298;28;20053;-78
2021/04/12 04:04:26;;;;;;;7.35;2.33;;;;;;;-0.68;95.85;102104.06;5007116;28;20054;-79
2021/04/12 04:06:57;;;;;;;8.30;2.65;;;;;;;-0.62;95.64;102109.94;5006297;28;20477;-78
2021/04/12 04:09:36;;;;;;;8.02;2.60;;;;;;;-0.56;95.67;102100.34;4978544;28;20091;-78
2021/04/12 04:12:31;;;;;;;4.47;2.28;;;;;;;-0.64;95.88;102095.38;4990351;28;20062;-78
2021/04/12 04:15:28;;;;;;;8.35;2.80;;;;;;;-0.73;95.92;102103.38;5013286;28;20088;-80
2021/04/12 04:17:59;;;;;;;11.30;2.60;;;;;;;-0.75;96.28;102102.53;4997020;28;20124;-78
2021/04/12 04:20:45;;;;;;;12.60;2.88;;;;;;;-0.71;95.83;102110.16;5030396;28;20052;-78
2021/04/12 04:23:33;;;;;;;8.80;2.63;;;;;;;-0.72;96.29;102107.63;5009613;28;20108;-78
2021/04/12 04:26:14;;;;;;;13.43;3.35;;;;;;;-0.83;95.92;102108.75;4992784;28;20462;-77
2021/04/12 04:28:46;;;;;;;13.65;3.03;;;;;;;-0.83;96.32;102110.47;5017492;28;20166;-78
2021/04/12 04:31:55;;;;;;;15.48;2.95;;;;;;;-0.81;96.56;102119.00;4993807;28;20069;-79
2021/04/12 04:34:32;;;;;;;18.25;3.00;;;;;;;-0.77;96.32;102118.06;5025474;28;20053;-78
2021/04/12 04:37:08;;;;;;;8.73;3.40;;;;;;;-0.85;96.40;102113.13;5019541;28;20045;-78
2021/04/12 04:40:11;;;;;;;11.52;3.80;;;;;;;-0.89;96.22;102108.91;5010990;28;20379;-79
2021/04/12 04:42:49;;;;;;;6.70;3.10;;;;;;;-0.94;96.47;102110.78;5025732;28;20128;-79
2021/04/12 04:45:20;;;;;;;7.53;2.72;;;;;;;-0.95;96.58;102118.53;4996831;28;20100;-77
2021/04/12 04:48:04;;;;;;;7.90;2.40;;;;;;;-0.94;96.85;102121.06;4995313;28;20053;-79
2021/04/12 04:50:42;;;;;;;11.88;3.30;;;;;;;-0.92;96.80;102127.03;4975812;28;20522;-78
2021/04/12 04:53:32;;;;;;;7.25;2.55;;;;;;;-0.79;96.42;102136.13;5006323;28;20068;-79
2021/04/12 04:56:25;;;;;;;9.27;3.05;;;;;;;-0.81;96.40;102142.19;4998991;28;20057;-79
2021/04/12 04:59:10;;;;;;;10.30;3.25;;;;;;;-0.82;96.87;102135.38;5008918;28;20053;-80
2021/04/12 05:02:20;;;;;;;11.07;2.72;;;;;;;-0.73;96.69;102137.72;5021724;28;20045;-78
2021/04/12 05:05:09;;;;;;;9.38;2.97;;;;;;;-0.69;96.27;102139.31;5009151;28;20046;-76
2021/04/12 05:08:18;;;;;;;13.05;3.08;;;;;;;-0.49;96.39;102137.94;5010505;28;20132;-78
2021/04/12 05:10:43;;;;;;;8.57;2.70;;;;;;;-0.45;96.42;102132.69;4995197;28;20046;-78
2021/04/12 05:13:31;;;;;;;8.57;3.47;;;;;;;-0.34;95.66;102136.69;5012501;28;20054;-80
2021/04/12 05:16:33;;;;;;;10.35;3.05;;;;;;;-0.28;96.17;102145.09;5010701;28;20038;-78
2021/04/12 05:19:34;;;;;;;16.13;3.13;;;;;;;-0.06;95.54;102152.22;5000279;28;20775;-77
2021/04/12 05:22:25;;;;;;;13.50;2.72;;;;;;;0.03;95.59;102153.72;5027319;28;20046;-77
2021/04/12 05:25:15;;;;;;;9.98;3.17;;;;;;;0.08;95.46;102157.03;4992662;28;20053;-77
2021/04/12 05:27:43;;;;;;;10.85;2.88;;;;;;;0.35;94.66;102163.09;4979482;28;20049;-77
2021/04/12 05:30:37;;;;;;;9.65;2.78;;;;;;;0.47;95.08;102160.16;5021345;28;20053;-78
2021/04/12 05:33:47;;;;;;;11.43;3.08;;;;;;;0.60;93.43;102160.59;5009855;28;20065;-78
2021/04/12 05:36:35;;;;;;;12.02;2.63;;;;;;;0.81;92.72;102172.03;5014630;28;20062;-80
2021/04/12 05:39:16;;;;;;;13.57;3.75;;;;;;;0.77;92.47;102178.16;4994015;28;20034;-78
2021/04/12 05:41:53;;;;;;;9.80;2.60;;;;;;;0.76;92.71;102182.50;4992652;28;20053;-76
2021/04/12 05:44:40;;;;;;;8.38;2.28;;;;;;;0.91;92.28;102185.50;5010933;28;20041;-79
2021/04/12 05:47:15;;;;;;;11.15;2.40;;;;;;;1.09;91.11;102196.97;4990089;28;20056;-75
2021/04/12 05:50:16;;;;;;;12.80;2.47;;;;;;;1.15;90.04;102196.78;5000568;28;20611;-77
2021/04/12 05:53:03;;;;;;;14.80;2.83;;;;;;;1.13;91.89;102195.97;5003247;28;20050;-78
2021/04/12 05:55:49;;;;;;;13.40;2.25;;;;;;;1.19;91.02;102195.78;4990248;28;20054;-76
2021/04/12 05:58:23;;;;;;;11.05;2.20;;;;;;;1.31;90.02;102190.19;5005213;28;20050;-76
2021/04/12 06:01:19;;;;;;;8.77;2.00;;;;;;;1.35;90.24;102194.38;4991048;28;20046;-77
2021/04/12 06:04:09;;;;;;;12.63;2.40;;;;;;;1.46;91.14;102201.75;4978509;28;20053;-78
2021/04/12 06:07:04;;;;;;;8.98;2.20;;;;;;;1.67;90.00;102207.09;4968802;28;20061;-74
2021/04/12 06:09:49;;;;;;;12.82;2.22;;;;;;;1.83;88.26;102216.03;4987293;28;20048;-77
2021/04/12 06:12:36;;;;;;;13.85;2.50;;;;;;;1.93;88.41;102216.53;5005004;28;20081;-77
2021/04/12 06:15:25;;;;;;;8.55;2.05;;;;;;;2.01;87.55;102222.28;4971530;28;20085;-78
2021/04/12 06:18:38;;;;;;;10.30;2.35;;;;;;;1.95;86.77;102218.16;5010982;28;20045;-77
2021/04/12 06:21:28;;;;;;;8.68;1.73;;;;;;;1.84;87.85;102229.81;4994652;28;20555;-78
2021/04/12 06:24:19;;;;;;;6.50;2.40;;;;;;;1.99;87.65;102231.84;4991439;28;20037;-77
2021/04/12 06:26:59;;;;;;;7.40;2.33;;;;;;;2.22;87.43;102230.19;4992024;28;20404;-77
2021/04/12 06:29:47;;;;;;;9.40;2.03;;;;;;;2.45;85.45;102235.38;5007197;28;21377;-78
2021/04/12 06:32:31;;;;;;;7.95;1.88;;;;;;;2.63;85.34;102239.00;4998864;28;20077;-77
2021/04/12 06:35:25;;;;;;;11.65;2.25;;;;;;;2.63;83.82;102238.16;4990912;28;20127;-78
2021/04/12 06:38:12;;;;;;;7.38;2.00;;;;;;;2.59;84.54;102242.59;4991199;28;20053;-78
2021/04/12 06:41:00;;;;;;;8.10;2.00;;;;;;;2.55;83.58;102245.38;5021594;28;20041;-77
2021/04/12 06:44:03;;;;;;;9.35;1.98;;;;;;;2.48;83.25;102255.13;5015731;28;20054;-76
2021/04/12 06:47:03;;;;;;;14.02;2.35;;;;;;;2.48;84.30;102258.53;5001509;28;20117;-77
2021/04/12 06:49:47;;;;;;;8.77;2.00;;;;;;;2.63;83.52;102259.72;4979625;28;20048;-77
2021/04/12 06:52:30;;;;;;;11.10;1.80;;;;;;;2.69;82.71;102261.22;4991770;28;20069;-76
2021/04/12 06:55:20;;;;;;;9.80;2.10;;;;;;;2.88;83.21;102262.25;5020013;28;20085;-76
2021/04/12 06:58:32;;;;;;;6.78;1.98;;;;;;;3.09;81.69;102267.47;4999156;28;20042;-77
2021/04/12 07:01:41;;;;;;;7.10;2.20;;;;;;;3.17;81.04;102270.59;5005974;28;20053;-78
2021/04/12 07:04:06;;;;;;;7.18;1.95;;;;;;;3.31;81.48;102278.69;5020908;28;20034;-76
2021/04/12 07:06:42;;;;;;;6.10;2.17;;;;;;;3.40;80.82;102271.44;5008402;28;20049;-78
2021/04/12 07:09:26;;;;;;;11.85;2.60;;;;;;;3.56;80.05;102280.28;5007495;28;20048;-79
2021/04/12 07:12:07;;;;;;;10.77;2.03;;;;;;;3.66;79.32;102276.38;4991293;28;20053;-78
2021/04/12 07:14:56;;;;;;;12.73;2.10;;;;;;;3.79;79.03;102283.66;4998723;28;20495;-74
2021/04/12 07:17:56;;;;;;;6.22;2.13;;;;;;;3.91;78.40;102283.13;5026336;28;20916;-78
2021/04/12 07:20:49;;;;;;;9.88;1.63;;;;;;;3.89;78.29;102290.97;5032085;28;20172;-78
2021/04/12 07:23:53;;;;;;;6.85;1.65;;;;;;;3.93;79.45;102289.09;4991991;28;20083;-75
2021/04/12 07:26:57;;;;;;;13.93;1.80;;;;;;;3.93;78.13;102291.69;4997829;28;20140;-77
2021/04/12 07:29:45;;;;;;;12.02;2.15;;;;;;;4.13;78.09;102298.63;5001316;28;20069;-77
2021/04/12 07:32:43;;;;;;;12.30;1.95;;;;;;;4.36;77.03;102308.03;4976093;28;20084;-78
2021/04/12 07:35:23;;;;;;;7.10;1.98;;;;;;;4.32;77.99;102309.06;4974036;28;20042;-78
2021/04/12 07:38:46;;;;;;;11.40;2.08;;;;;;;4.47;76.82;102302.34;5015071;28;20807;-77
2021/04/12 07:41:50;;;;;;;7.53;1.98;;;;;;;4.68;75.57;102306.56;5007011;28;20070;-77
2021/04/12 07:44:22;;;;;;;10.57;2.05;;;;;;;4.90;75.27;102308.19;4982672;28;20053;-77
2021/04/12 07:47:25;;;;;;;8.43;2.00;;;;;;;4.83;74.47;102312.00;5007881;28;20053;-78
2021/04/12 07:50:09;;;;;;;12.20;1.90;;;;;;;4.98;74.05;102313.88;5021888;28;20068;-77
2021/04/12 07:52:51;;;;;;;13.68;1.70;;;;;;;5.17;73.38;102315.63;4996417;28;20120;-74
2021/04/12 07:55:38;;;;;;;6.93;1.77;;;;;;;5.40;73.93;102304.94;5004453;28;20049;-76
2021/04/12 07:58:49;;;;;;;10.52;1.98;;;;;;;5.38;72.50;102322.38;5021325;28;20804;-77
2021/04/12 08:01:32;;;;;;;10.30;1.90;;;;;;;5.35;72.12;102321.69;5034187;28;20692;-78
2021/04/12 08:04:42;;;;;;;7.80;1.58;;;;;;;5.34;71.28;102330.41;4989036;28;20137;-80
2021/04/12 08:07:35;;;;;;;10.60;1.67;;;;;;;5.18;72.30;102338.97;5014744;28;20076;-77
2021/04/12 08:10:12;;;;;;;8.70;1.40;;;;;;;5.23;71.91;102341.34;5008853;28;20045;-77
2021/04/12 08:13:32;;;;;;;7.28;1.70;;;;;;;5.31;72.23;102344.41;4996494;28;20073;-77
2021/04/12 08:16:30;;;;;;;7.22;1.42;;;;;;;5.30;74.04;102354.91;4996700;28;20088;-79
2021/04/12 08:19:20;;;;;;;15.25;2.10;;;;;;;5.40;71.93;102359.56;4991908;28;20481;-75
2021/04/12 08:22:10;;;;;;;8.18;1.40;;;;;;;5.78;70.53;102358.63;4977371;28;20188;-78
2021/04/12 08:25:13;;;;;;;10.85;1.42;;;;;;;5.69;70.44;102356.47;4989393;28;20038;-79
2021/04/12 08:28:09;;;;;;;12.95;1.42;;;;;;;5.61;69.69;102359.47;5018890;28;21232;-76
2021/04/12 08:31:06;;;;;;;15.23;1.75;;;;;;;5.55;68.79;102368.41;5011801;28;20053;-77
2021/04/12 08:34:01;;;;;;;15.07;2.03;;;;;;;5.38;70.00;102361.41;5010824;28;20054;-77
2021/04/12 08:37:01;;;;;;;9.32;1.40;;;;;;;5.45;70.29;102365.41;5007992;28;20081;-78
2021/04/12 08:39:32;;;;;;;11.55;1.50;;;;;;;5.87;70.04;102371.22;5029656;28;20103;-75
2021/04/12 08:42:16;;;;;;;10.65;1.40;;;;;;;5.79;69.35;102370.75;4995255;28;20503;-78
2021/04/12 08:45:16;;;;;;;7.85;1.13;;;;;;;5.91;67.91;102370.13;4994455;28;20134;-77
2021/04/12 08:48:03;;;;;;;5.22;1.20;;;;;;;6.29;67.44;102372.63;4991496;28;20139;-77
2021/04/12 08:51:06;;;;;;;7.88;1.63;;;;;;;6.39;66.98;102375.59;5017127;28;20045;-75
2021/04/12 08:53:57;;;;;;;6.65;1.35;;;;;;;6.29;65.50;102375.22;5013560;28;20042;-75
2021/04/12 08:56:54;;;;;;;8.73;1.58;;;;;;;6.39;67.86;102384.25;5024771;28;20045;-76
2021/04/12 08:59:38;;;;;;;8.30;1.55;;;;;;;6.29;63.35;102385.66;5008992;28;20056;-76
2021/04/12 09:02:24;;;;;;;6.97;1.10;;;;;;;6.07;66.45;102388.50;4998619;28;20161;-78
2021/04/12 09:05:11;;;;;;;8.98;1.35;;;;;;;5.91;66.80;102390.97;5023883;28;20096;-76
2021/04/12 09:08:10;;;;;;;6.72;1.10;;;;;;;5.86;64.67;102400.78;4992952;28;20053;-78
2021/04/12 09:11:21;;;;;;;6.75;1.08;;;;;;;5.69;66.79;102406.81;4976603;28;20042;-77
2021/04/12 09:14:07;;;;;;;8.88;1.50;;;;;;;5.52;65.90;102406.75;4974536;28;20093;-78
2021/04/12 09:17:05;;;;;;;6.50;1.23;;;;;;;5.55;62.99;102406.63;5004502;28;20037;-78
2021/04/12 09:19:59;;;;;;;8.90;0.95;;;;;;;5.66;66.35;102413.00;4993056;28;20038;-78
2021/04/12 09:22:33;;;;;;;5.88;1.05;;;;;;;5.90;63.62;102401.47;4973425;28;20050;-77
2021/04/12 09:25:42;;;;;;;6.43;1.20;;;;;;;6.12;66.29;102402.13;5007712;28;20429;-78
2021/04/12 09:28:31;;;;;;;5.85;1.30;;;;;;;6.25;64.13;102404.94;5008878;28;20053;-75
2021/04/12 09:31:15;;;;;;;5.97;0.77;;;;;;;6.35;64.44;102405.34;5021229;28;20068;-76
2021/04/12 09:34:02;;;;;;;7.20;1.40;;;;;;;6.66;62.68;102411.56;5007057;28;20042;-76
2021/04/12 09:36:49;;;;;;;9.93;1.38;;;;;;;6.93;64.17;102420.56;4974728;28;20519;-76
2021/04/12 09:39:53;;;;;;;5.82;2.17;;;;;;;7.08;64.28;102421.47;4987068;28;21278;-76
2021/04/12 09:42:51;;;;;;;3.15;0.90;;;;;;;6.65;61.27;102413.34;4987758;28;20065;-76
2021/04/12 09:45:35;;;;;;;8.13;1.23;;;;;;;6.23;64.78;102418.06;5001274;28;20045;-73
2021/04/12 09:48:28;;;;;;;3.35;0.90;;;;;;;6.22;61.63;102418.97;5006741;28;20057;-79
2021/04/12 09:51:31;;;;;;;6.10;1.35;;;;;;;6.65;60.35;102413.34;5021170;28;20100;-79
2021/04/12 09:54:32;;;;;;;3.03;0.73;;;;;;;7.12;57.93;102416.94;4993498;28;20138;-78
2021/04/12 09:57:35;;;;;;;4.43;1.30;;;;;;;7.49;57.19;102418.38;4995250;28;20512;-79
2021/04/12 10:00:33;;;;;;;5.35;0.82;;;;;;;8.03;55.79;102415.34;4996265;28;20046;-77
2021/04/12 10:03:24;;;;;;;3.53;0.50;;;;;;;8.57;52.34;102420.88;4957984;28;20069;-78
2021/04/12 10:06:27;;;;;;;6.30;0.90;;;;;;;8.34;50.54;102418.75;5007067;28;20073;-76
2021/04/12 10:09:17;;;;;;;4.53;0.90;;;;;;;7.84;55.06;102420.78;5022143;28;20054;-78
2021/04/12 10:11:57;;;;;;;8.13;0.98;;;;;;;7.93;56.00;102425.50;5017403;28;20049;-76
2021/04/12 10:14:29;;;;;;;6.00;0.90;;;;;;;7.39;56.27;102432.88;4992257;28;20357;-77
2021/04/12 10:17:05;;;;;;;4.60;0.80;;;;;;;6.70;55.23;102426.13;4982940;28;20056;-78
2021/04/12 10:19:47;;;;;;;4.68;0.82;;;;;;;6.91;57.26;102427.63;5004246;28;20046;-77
2021/04/12 10:22:16;;;;;;;8.00;0.98;;;;;;;7.65;54.36;102422.75;5015889;28;20052;-77
2021/04/12 10:24:56;;;;;;;2.60;0.55;;;;;;;7.67;53.04;102423.53;5010909;28;20050;-76
2021/04/12 10:27:39;;;;;;;3.88;0.70;;;;;;;7.25;52.90;102423.16;5006405;28;20643;-79
2021/04/12 10:30:29;;;;;;;1.92;0.50;;;;;;;6.74;54.30;102430.25;4984841;28;20042;-77
2021/04/12 10:33:01;;;;;;;9.88;0.95;;;;;;;6.53;58.57;102438.25;5016768;28;20088;-73
2021/04/12 10:35:37;;;;;;;3.67;0.70;;;;;;;6.47;59.01;102435.16;5010171;28;20041;-75
2021/04/12 10:38:25;;;;;;;3.13;0.98;;;;;;;6.30;57.95;102436.84;5003147;28;20042;-78
2021/04/12 10:40:50;;;;;;;6.00;1.35;;;;;;;6.93;59.36;102430.13;5007001;28;20136;-78
2021/04/12 10:43:23;;;;;;;2.60;0.90;;;;;;;7.49;53.88;102428.00;5004680;28;20176;-79
2021/04/12 10:45:57;;;;;;;3.25;0.70;;;;;;;7.83;53.87;102424.31;5013744;28;20484;-78
2021/04/12 10:48:52;;;;;;;3.67;0.80;;;;;;;7.85;54.07;102425.06;5000187;28;20056;-79
2021/04/12 10:51:54;;;;;;;4.20;1.20;;;;;;;7.69;52.18;102424.28;5005286;28;20128;-78
2021/04/12 10:54:58;;;;;;;2.08;0.70;;;;;;;7.08;55.32;102424.09;4992696;28;20065;-77
2021/04/12 10:58:03;;;;;;;5.05;1.00;;;;;;;6.96;56.42;102422.16;4989505;28;20057;-79
2021/04/12 11:00:47;;;;;;;5.35;1.27;;;;;;;7.56;57.01;102414.50;5027779;28;20053;-77
2021/04/12 11:03:27;;;;;;;3.97;1.38;;;;;;;8.09;54.39;102416.75;4995005;28;20533;-79
2021/04/12 11:06:34;;;;;;;4.10;0.90;;;;;;;8.53;52.41;102410.69;4979831;28;20042;-80
2021/04/12 11:09:24;;;;;;;2.40;0.70;;;;;;;8.94;50.98;102416.00;5024314;28;20045;-76
2021/04/12 11:12:10;;;;;;;3.35;0.38;;;;;;;9.24;48.30;102419.44;5012479;28;20072;-75
2021/04/12 11:14:46;;;;;;;2.90;0.40;;;;;;;9.25;46.26;102424.59;4992778;28;20088;-78
2021/04/12 11:17:36;;;;;;;1.60;0.45;;;;;;;9.42;44.88;102418.28;4991477;28;20045;-78
2021/04/12 11:20:23;;;;;;;3.15;0.65;;;;;;;9.94;45.67;102419.28;5042604;28;20527;-78
2021/04/12 11:23:08;;;;;;;3.70;0.47;;;;;;;9.53;51.42;102443.75;4985563;28;20129;-78
2021/04/12 11:25:46;;;;;;;6.20;0.82;;;;;;;8.76;55.29;102445.94;5010367;28;20046;-80
2021/04/12 11:28:18;;;;;;;6.68;0.90;;;;;;;7.93;57.29;102458.59;4981081;28;20050;-79
2021/04/12 11:31:10;;;;;;;4.25;0.80;;;;;;;7.28;58.83;102467.38;4989689;28;20048;-79
2021/04/12 11:33:44;;;;;;;5.53;0.75;;;;;;;6.68;62.41;102488.78;5016075;28;20049;-79
2021/04/12 11:36:16;;;;;;;5.55;0.93;;;;;;;5.83;68.94;102492.91;5018173;28;20046;-79
2021/04/12 11:38:49;;;;;;;3.95;0.88;;;;;;;5.00;73.51;102512.28;4979125;28;20048;-78
2021/04/12 11:41:23;;;;;;;1.25;0.70;;;;;;;4.24;75.27;102512.00;4997870;28;20046;-79
2021/04/12 11:43:52;;;;;;;3.92;0.80;;;;;;;3.68;78.74;102497.75;5008126;28;20054;-79
2021/04/12 11:46:56;;;;;;;0.80;0.60;;;;;;;3.60;81.30;102499.81;4996888;28;20084;-76
2021/04/12 11:49:50;;;;;;;3.03;0.80;;;;;;;3.80;80.80;102495.59;4990133;28;20184;-78
2021/04/12 11:52:19;;;;;;;;;;;;;;;4.06;80.47;102492.81;5010754;28;20053;-79
2021/04/12 11:55:12;;;;;;;2.78;0.73;;;;;;;4.43;79.10;102490.50;5012422;28;19924;-78
2021/04/12 11:57:46;;;;;;;3.08;0.90;;;;;;;4.58;76.75;102486.41;5011653;28;20053;-78
2021/04/12 12:00:14;;;;;;;4.10;0.90;;;;;;;4.82;79.72;102484.47;5011636;28;20046;-78
2021/04/12 12:02:41;;;;;;;5.57;0.98;;;;;;;5.19;78.31;102486.31;5017609;28;20042;-80
2021/04/12 12:05:25;;;;;;;2.45;0.60;;;;;;;5.35;76.84;102486.47;5018351;28;20046;-79
2021/04/12 12:07:58;;;;;;;0.43;0.40;;;;;;;5.84;75.86;102475.53;5029158;28;20538;-78
2021/04/12 12:10:29;;;;;;;2.30;0.40;;;;;;;6.06;72.39;102483.19;5009555;28;20110;-78
2021/04/12 12:13:13;;;;;;;0.77;0.30;;;;;;;6.26;70.15;102471.78;5005317;28;20922;-76
2021/04/12 12:16:04;;;;;;;0.50;0.35;;;;;;;6.62;72.19;102476.91;4998923;28;20070;-78
2021/04/12 12:18:36;;;;;;;4.43;0.32;;;;;;;6.76;70.42;102471.00;5020883;28;20053;-77
2021/04/12 12:21:20;;;;;;;;;;;;;;;6.66;67.30;102477.59;5028432;28;20046;-77
2021/04/12 12:24:09;;;;;;;0.85;0.50;;;;;;;6.51;65.63;102473.16;4995186;28;20302;-78
2021/04/12 12:26:45;;;;;;;1.48;0.60;;;;;;;6.43;66.22;102470.94;5028063;28;20052;-78
2021/04/12 12:29:21;;;;;;;1.48;0.50;;;;;;;6.35;70.27;102476.56;4973367;28;20135;-78
2021/04/12 12:32:05;;;;;;;6.32;0.70;;;;;;;6.31;69.15;102467.19;5008799;28;20056;-80
2021/04/12 12:34:37;;;;;;;2.30;0.60;;;;;;;6.36;69.70;102473.00;4977041;28;20496;-78
2021/04/12 12:37:02;;;;;;;3.53;0.82;;;;;;;6.50;68.33;102468.84;5014873;28;20091;-77
2021/04/12 12:39:51;;;;;;;1.23;0.40;;;;;;;6.76;68.93;102468.41;5015596;28;20053;-77
2021/04/12 12:42:41;;;;;;;4.47;0.95;;;;;;;7.30;65.65;102462.09;4994971;28;20049;-77
2021/04/12 12:45:21;;;;;;;2.92;0.60;;;;;;;8.03;63.77;102465.00;5026557;28;20049;-78
2021/04/12 12:47:51;;;;;;;1.50;0.63;;;;;;;8.57;62.64;102456.69;5012641;28;20041;-77
2021/04/12 12:50:52;;;;;;;1.35;0.60;;;;;;;8.90;58.59;102456.41;4992426;28;20050;-78
2021/04/12 12:53:27;;;;;;;0.98;0.50;;;;;;;8.90;56.46;102453.78;5026247;28;20092;-78
2021/04/12 12:56:12;;;;;;;1.88;0.52;;;;;;;8.80;53.81;102447.44;4996383;28;20149;-79
2021/04/12 12:58:50;;;;;;;2.95;0.60;;;;;;;9.21;53.26;102451.03;4979092;28;20574;-78
2021/04/12 13:01:32;;;;;;;2.50;0.52;;;;;;;9.33;52.08;102448.50;4997576;28;20038;-77
2021/04/12 13:04:11;;;;;;;2.70;0.60;;;;;;;8.83;55.40;102444.63;4999412;28;20895;-79